createdAt,value
2023-03-21T00:01:55.364Z,25.23
2023-03-21T00:04:28.365Z,23.83
2023-03-21T00:06:56.991Z,24.60
2023-03-21T00:09:24.594Z,25.38
2023-03-21T00:11:51.867Z,21.95
2023-03-21T00:14:20.295Z,24.33
2023-03-21T00:16:52.185Z,28.85
2023-03-21T00:19:21.129Z,27.55
2023-03-21T00:22:08.746Z,28.08
2023-03-21T00:24:37.850Z,27.88
2023-03-21T00:27:30.257Z,28.30
2023-03-21T00:29:53.674Z,28.85
2023-03-21T00:32:22.170Z,27.42
2023-03-21T00:35:34.750Z,23.98
2023-03-21T00:37:37.607Z,24.42
2023-03-21T00:40:23.078Z,29.05
2023-03-21T00:42:53.001Z,29.05
2023-03-21T00:45:22.100Z,26.60
2023-03-21T00:47:49.893Z,26.13
2023-03-21T00:50:18.227Z,25.33
2023-03-21T00:52:45.619Z,27.67
2023-03-21T00:55:19.889Z,27.67
2023-03-21T00:57:50.200Z,27.50
2023-03-21T01:00:23.990Z,25.95
2023-03-21T01:03:04.262Z,30.58
2023-03-21T01:06:01.195Z,30.67
2023-03-21T01:08:33.225Z,28.38
2023-03-21T01:11:17.864Z,28.10
2023-03-21T01:13:53.785Z,30.55
2023-03-21T01:16:25.907Z,28.20
2023-03-21T01:18:54.294Z,29.90
2023-03-21T01:21:22.319Z,29.45
2023-03-21T01:23:49.617Z,26.58
2023-03-21T01:26:17.268Z,27.88
2023-03-21T01:28:45.574Z,29.25
2023-03-21T01:31:16.941Z,28.92
2023-03-21T01:33:44.810Z,32.83
2023-03-21T01:36:24.510Z,32.08
2023-03-21T01:38:53.189Z,29.85
2023-03-21T01:41:44.129Z,30.42
2023-03-21T01:44:19.735Z,28.30
2023-03-21T01:47:09.667Z,27.50
2023-03-21T01:49:48.011Z,27.70
2023-03-21T01:52:33.843Z,25.35
2023-03-21T01:55:11.944Z,24.73
2023-03-21T01:58:04.009Z,24.70
2023-03-21T02:00:34.077Z,23.75
2023-03-21T02:03:16.979Z,24.67
2023-03-21T02:06:08.622Z,26.15
2023-03-21T02:08:39.499Z,24.58
2023-03-21T02:11:10.234Z,23.50
2023-03-21T02:13:38.265Z,22.90
2023-03-21T02:16:52.715Z,24.02
2023-03-21T02:20:15.826Z,22.13
2023-03-21T02:23:23.188Z,23.33
2023-03-21T02:26:41.959Z,23.23
2023-03-21T02:29:38.267Z,22.50
2023-03-21T02:32:40.559Z,23.45
2023-03-21T02:36:00.600Z,27.13
2023-03-21T02:38:43.730Z,23.60
2023-03-21T02:41:27.475Z,24.08
2023-03-21T02:44:12.953Z,24.67
2023-03-21T02:47:05.971Z,24.80
2023-03-21T02:50:07.433Z,26.65
2023-03-21T02:52:39.851Z,25.38
2023-03-21T02:55:27.304Z,26.08
2023-03-21T02:58:06.958Z,25.58
2023-03-21T03:00:42.962Z,25.50
2023-03-21T03:03:20.957Z,26.35
2023-03-21T03:06:02.636Z,26.13
2023-03-21T03:09:01.112Z,25.67
2023-03-21T03:11:37.057Z,25.58
2023-03-21T03:14:53.170Z,24.85
2023-03-21T03:17:42.494Z,24.33
2023-03-21T03:20:39.129Z,23.85
2023-03-21T03:23:35.865Z,26.10
2023-03-21T03:26:09.220Z,26.80
2023-03-21T03:28:45.023Z,25.60
2023-03-21T03:31:21.997Z,27.15
2023-03-21T03:33:54.877Z,25.88
2023-03-21T03:36:32.818Z,25.92
2023-03-21T03:39:09.076Z,25.90
2023-03-21T03:42:06.066Z,24.02
2023-03-21T03:44:33.550Z,25.13
2023-03-21T03:47:29.855Z,24.35
2023-03-21T03:50:20.757Z,25.50
2023-03-21T03:53:07.098Z,23.73
2023-03-21T03:55:38.886Z,25.75
2023-03-21T03:58:13.194Z,26.60
2023-03-21T04:00:49.516Z,27.42
2023-03-21T04:03:16.899Z,25.15
2023-03-21T04:05:47.783Z,26.50
2023-03-21T04:08:16.758Z,26.42
2023-03-21T04:10:44.762Z,24.38
2023-03-21T04:13:12.081Z,25.10
2023-03-21T04:15:39.674Z,24.27
2023-03-21T04:18:07.241Z,23.65
2023-03-21T04:20:37.269Z,25.73
2023-03-21T04:23:06.098Z,27.23
2023-03-21T04:25:44.686Z,26.17
2023-03-21T04:28:15.121Z,26.80
2023-03-21T04:30:52.030Z,29.02
2023-03-21T04:33:28.264Z,30.40
2023-03-21T04:35:56.398Z,30.73
2023-03-21T04:38:25.211Z,32.85
2023-03-21T04:40:52.951Z,32.17
2023-03-21T04:43:20.884Z,31.83
2023-03-21T04:45:48.394Z,31.30
2023-03-21T04:48:16.212Z,33.22
2023-03-21T04:50:45.446Z,32.58
2023-03-21T04:53:13.188Z,34.58
2023-03-21T04:55:40.706Z,33.30
2023-03-21T04:58:08.540Z,34.17
2023-03-21T05:00:39.141Z,33.17
2023-03-21T05:03:09.231Z,31.95
2023-03-21T05:05:38.627Z,35.95
2023-03-21T05:08:06.542Z,31.67
2023-03-21T05:10:34.446Z,31.58
2023-03-21T05:13:01.707Z,31.98
2023-03-21T05:15:29.321Z,32.15
2023-03-21T05:17:58.713Z,31.88
2023-03-21T05:20:26.512Z,32.20
2023-03-21T05:22:53.761Z,34.58
2023-03-21T05:25:35.421Z,38.47
2023-03-21T05:28:02.855Z,37.92
2023-03-21T05:30:31.051Z,35.78
2023-03-21T05:32:58.562Z,31.17
2023-03-21T05:35:27.041Z,32.40
2023-03-21T05:37:54.402Z,30.88
2023-03-21T05:40:22.384Z,31.20
2023-03-21T05:42:49.642Z,30.98
2023-03-21T05:45:17.345Z,30.77
2023-03-21T05:47:44.638Z,33.95
2023-03-21T05:50:13.726Z,30.05
2023-03-21T05:52:41.092Z,28.77
2023-03-21T05:55:08.931Z,29.83
2023-03-21T05:57:39.321Z,30.27
2023-03-21T06:00:09.069Z,30.80
2023-03-21T06:02:36.431Z,29.17
2023-03-21T06:05:04.413Z,30.90
2023-03-21T06:07:32.057Z,28.92
2023-03-21T06:09:59.637Z,30.80
2023-03-21T06:12:26.986Z,28.95
2023-03-21T06:14:54.601Z,30.17
2023-03-21T06:17:22.177Z,30.25
2023-03-21T06:19:49.869Z,28.17
2023-03-21T06:22:17.085Z,30.02
2023-03-21T06:24:44.684Z,29.83
2023-03-21T06:27:12.273Z,29.67
2023-03-21T06:29:39.990Z,27.27
2023-03-21T06:32:07.739Z,28.00
2023-03-21T06:34:35.314Z,23.40
2023-03-21T06:37:04.124Z,23.85
2023-03-21T06:39:33.202Z,23.27
2023-03-21T06:42:01.419Z,23.73
2023-03-21T06:44:29.472Z,22.92
2023-03-21T06:46:56.914Z,25.48
2023-03-21T06:49:26.906Z,28.55
2023-03-21T06:51:54.244Z,27.95
2023-03-21T06:54:22.159Z,27.58
2023-03-21T06:56:49.585Z,25.65
2023-03-21T06:59:17.529Z,26.23
2023-03-21T07:01:44.960Z,27.75
2023-03-21T07:04:12.791Z,23.40
2023-03-21T07:06:40.113Z,21.13
2023-03-21T07:09:07.724Z,22.88
2023-03-21T07:11:37.039Z,21.20
2023-03-21T07:14:05.045Z,22.90
2023-03-21T07:16:32.881Z,20.38
2023-03-21T07:19:00.834Z,21.83
2023-03-21T07:21:28.228Z,23.20
2023-03-21T07:23:55.728Z,25.83
2023-03-21T07:26:22.989Z,23.98
2023-03-21T07:28:50.671Z,24.40
2023-03-21T07:31:19.578Z,24.77
2023-03-21T07:33:47.248Z,24.80
2023-03-21T07:36:16.311Z,24.70
2023-03-21T07:38:46.069Z,24.88
2023-03-21T07:43:46.795Z,23.95
2023-03-21T07:46:14.232Z,25.17
2023-03-21T07:48:42.092Z,26.02
2023-03-21T07:51:09.716Z,26.52
2023-03-21T07:53:37.412Z,26.50
2023-03-21T07:56:05.773Z,27.45
2023-03-21T07:58:34.458Z,26.80
2023-03-21T08:01:02.425Z,27.45
2023-03-21T08:03:32.792Z,27.52
2023-03-21T08:06:03.934Z,25.80
2023-03-21T08:08:31.554Z,26.38
2023-03-21T08:10:58.889Z,27.67
2023-03-21T08:13:26.724Z,27.55
2023-03-21T08:15:54.184Z,28.80
2023-03-21T08:18:22.182Z,26.58
2023-03-21T08:20:57.745Z,28.85
2023-03-21T08:23:26.016Z,29.05
2023-03-21T08:25:55.938Z,28.88
2023-03-21T08:28:25.099Z,28.30
2023-03-21T08:30:52.473Z,27.63
2023-03-21T08:33:20.943Z,26.80
2023-03-21T08:35:48.472Z,28.33
2023-03-21T08:38:17.066Z,27.05
2023-03-21T08:40:44.377Z,27.98
2023-03-21T08:43:14.657Z,29.17
2023-03-21T08:45:42.296Z,27.25
2023-03-21T08:48:09.887Z,28.88
2023-03-21T08:50:37.474Z,26.70
2023-03-21T08:53:05.114Z,27.55
2023-03-21T08:55:33.253Z,26.98
2023-03-21T08:58:02.124Z,29.40
2023-03-21T09:00:29.940Z,25.30
2023-03-21T09:02:58.953Z,27.50
2023-03-21T09:05:27.244Z,27.27
2023-03-21T09:07:55.088Z,26.08
2023-03-21T09:10:24.382Z,24.13
2023-03-21T09:12:54.801Z,24.13
2023-03-21T09:15:28.971Z,25.50
2023-03-21T09:17:58.813Z,27.80
2023-03-21T09:20:31.362Z,25.23
2023-03-21T09:23:02.035Z,25.25
2023-03-21T09:25:32.721Z,24.17
2023-03-21T09:28:05.300Z,25.23
2023-03-21T09:30:36.693Z,24.55
2023-03-21T09:33:09.779Z,24.10
2023-03-21T09:35:37.709Z,26.00
2023-03-21T09:38:05.761Z,25.50
2023-03-21T09:41:09.397Z,26.25
2023-03-21T09:44:12.134Z,23.80
2023-03-21T09:47:03.926Z,25.00
2023-03-21T09:49:42.200Z,25.73
2023-03-21T09:52:23.962Z,25.95
2023-03-21T09:54:55.734Z,24.45
2023-03-21T09:57:41.908Z,26.35
2023-03-21T10:04:29.092Z,26.75
2023-03-21T10:07:02.271Z,25.70
2023-03-21T10:09:32.680Z,25.92
2023-03-21T10:12:30.685Z,24.25
2023-03-21T10:15:02.092Z,25.35
2023-03-21T10:17:43.584Z,26.00
2023-03-21T10:20:18.443Z,25.52
2023-03-21T10:22:48.957Z,25.27
2023-03-21T10:25:22.427Z,25.75
2023-03-21T10:27:52.790Z,26.75
2023-03-21T10:34:47.043Z,22.48
2023-03-21T10:37:16.929Z,23.85
2023-03-21T10:39:50.848Z,26.58
2023-03-21T10:42:32.884Z,28.75
2023-03-21T10:45:00.331Z,23.20
2023-03-21T10:47:34.024Z,22.25
2023-03-21T10:50:16.214Z,22.80
2023-03-21T10:53:00.796Z,20.55
2023-03-21T10:55:34.735Z,21.50
2023-03-21T10:58:19.064Z,22.60
2023-03-21T11:00:48.199Z,22.77
2023-03-21T11:03:32.385Z,22.73
2023-03-21T11:06:11.526Z,23.83
2023-03-21T11:09:16.934Z,23.63
2023-03-21T11:12:13.345Z,23.92
2023-03-21T11:14:46.832Z,23.55
2023-03-21T11:17:17.089Z,22.58
2023-03-21T11:20:06.080Z,20.50
2023-03-21T11:22:43.601Z,20.10
2023-03-21T11:25:32.907Z,22.25
2023-03-21T11:28:09.413Z,19.38
2023-03-21T11:30:37.056Z,18.85
2023-03-21T11:33:07.048Z,21.10
2023-03-21T11:35:39.388Z,19.92
2023-03-21T11:38:26.416Z,19.17
2023-03-21T11:41:01.018Z,19.00
2023-03-21T11:43:40.060Z,19.75
2023-03-21T11:46:14.898Z,18.63
2023-03-21T11:48:50.443Z,17.98
2023-03-21T11:51:41.265Z,19.30
2023-03-21T11:54:14.500Z,19.27
2023-03-21T11:56:51.037Z,20.65
2023-03-21T11:59:43.171Z,21.15
2023-03-21T12:02:55.418Z,20.25
2023-03-21T12:06:00.404Z,20.95
2023-03-21T12:09:16.252Z,21.85
2023-03-21T12:12:30.005Z,21.40
2023-03-21T12:15:27.141Z,20.38
2023-03-21T12:18:16.137Z,20.95
2023-03-21T12:20:53.747Z,21.85
2023-03-21T12:24:05.950Z,21.73
2023-03-21T12:27:02.730Z,19.13
2023-03-21T12:29:30.218Z,19.73
2023-03-21T12:32:06.693Z,20.30
2023-03-21T12:35:00.288Z,18.50
2023-03-21T12:37:39.361Z,20.90
2023-03-21T12:40:39.671Z,19.27
2023-03-21T12:43:36.861Z,20.10
2023-03-21T12:46:26.737Z,20.35
2023-03-21T12:49:07.870Z,21.27
2023-03-21T12:51:44.819Z,20.85
2023-03-21T12:54:46.903Z,21.10
2023-03-21T12:57:35.621Z,18.92
2023-03-21T13:00:17.686Z,19.48
2023-03-21T13:02:57.617Z,18.73
2023-03-21T13:05:41.204Z,18.85
2023-03-21T13:08:26.424Z,18.30
2023-03-21T13:10:57.518Z,18.40
2023-03-21T13:13:59.446Z,16.73
2023-03-21T13:16:45.214Z,16.55
2023-03-21T13:19:47.788Z,16.13
2023-03-21T13:22:29.070Z,15.50
2023-03-21T13:25:23.138Z,14.50
2023-03-21T13:28:01.776Z,15.52
2023-03-21T13:30:34.022Z,15.23
2023-03-21T13:33:21.784Z,14.18
2023-03-21T13:36:05.666Z,14.93
2023-03-21T13:38:40.152Z,14.48
2023-03-21T13:41:16.983Z,14.45
2023-03-21T13:44:05.997Z,13.75
2023-03-21T13:46:54.206Z,14.65
2023-03-21T13:49:41.682Z,13.05
2023-03-21T13:52:29.277Z,13.27
2023-03-21T13:54:58.247Z,12.18
2023-03-21T13:57:30.516Z,13.48
2023-03-21T14:00:29.538Z,13.57
2023-03-21T14:03:17.649Z,11.68
2023-03-21T14:09:38.258Z,11.85
2023-03-21T14:12:14.325Z,11.07
2023-03-21T14:14:48.972Z,13.25
2023-03-21T14:17:33.025Z,13.52
2023-03-21T14:20:18.475Z,13.98
2023-03-21T14:22:48.820Z,11.60
2023-03-21T14:25:21.232Z,13.48
2023-03-21T14:27:57.188Z,12.48
2023-03-21T14:30:34.895Z,11.88
2023-03-21T14:33:24.045Z,12.82
2023-03-21T14:35:53.066Z,12.68
2023-03-21T14:38:34.740Z,12.75
2023-03-21T14:41:02.660Z,13.77
2023-03-21T14:43:34.079Z,14.27
2023-03-21T14:46:02.005Z,13.65
2023-03-21T14:48:35.510Z,13.00
2023-03-21T14:51:09.663Z,15.35
2023-03-21T14:53:42.658Z,12.45
2023-03-21T14:56:26.064Z,14.38
2023-03-21T14:58:55.051Z,13.85
2023-03-21T15:01:34.837Z,14.43
2023-03-21T15:04:07.634Z,16.08
2023-03-21T15:06:52.247Z,15.13
2023-03-21T15:09:22.954Z,15.45
2023-03-21T15:11:53.332Z,15.82
2023-03-21T15:14:36.826Z,16.50
2023-03-21T15:17:08.467Z,14.50
2023-03-21T15:19:43.774Z,16.58
2023-03-21T15:22:43.498Z,15.15
2023-03-21T15:25:20.184Z,15.32
2023-03-21T15:27:51.075Z,12.63
2023-03-21T15:30:30.456Z,14.50
2023-03-21T15:33:07.745Z,17.48
2023-03-21T15:35:46.202Z,18.20
2023-03-21T15:38:24.191Z,15.73
2023-03-21T15:40:52.253Z,15.10
2023-03-21T15:43:20.468Z,16.70
2023-03-21T15:45:54.428Z,16.13
2023-03-21T15:48:29.680Z,15.32
2023-03-21T15:51:23.787Z,15.68
2023-03-21T15:53:56.651Z,15.70
2023-03-21T15:56:25.211Z,15.57
2023-03-21T15:58:53.488Z,16.45
2023-03-21T16:01:26.466Z,14.73
2023-03-21T16:04:13.369Z,16.85
2023-03-21T16:06:53.770Z,18.15
2023-03-21T16:09:23.813Z,18.73
2023-03-21T16:11:59.817Z,17.55
2023-03-21T16:18:29.559Z,17.33
2023-03-21T16:20:59.333Z,16.80
2023-03-21T16:23:27.129Z,16.45
2023-03-21T16:25:58.289Z,17.17
2023-03-21T16:28:25.737Z,20.17
2023-03-21T16:30:53.334Z,16.98
2023-03-21T16:33:21.975Z,15.00
2023-03-21T16:35:49.608Z,14.25
2023-03-21T16:38:16.908Z,16.60
2023-03-21T16:40:45.096Z,16.92
2023-03-21T16:43:12.631Z,17.50
2023-03-21T16:45:40.535Z,15.65
2023-03-21T16:48:09.134Z,13.10
2023-03-21T16:50:47.558Z,11.18
2023-03-21T16:53:14.970Z,11.05
2023-03-21T16:55:42.743Z,14.65
2023-03-21T16:58:15.710Z,17.60
2023-03-21T17:00:43.584Z,19.83
2023-03-21T17:03:21.677Z,25.30
2023-03-21T17:05:49.623Z,25.50
2023-03-21T17:08:19.928Z,28.23
2023-03-21T17:10:47.663Z,24.05
2023-03-21T17:13:15.012Z,25.20
2023-03-21T17:15:42.675Z,26.42
2023-03-21T17:18:12.373Z,29.27
2023-03-21T17:20:41.855Z,25.42
2023-03-21T17:23:10.361Z,28.00
2023-03-21T17:25:38.942Z,25.70
2023-03-21T17:28:06.356Z,24.73
2023-03-21T17:30:36.936Z,26.05
2023-03-21T17:33:04.437Z,25.75
2023-03-21T17:35:32.409Z,24.08
2023-03-21T17:37:59.872Z,23.17
2023-03-21T17:40:32.081Z,24.90
2023-03-21T17:43:02.620Z,26.17
2023-03-21T17:45:30.569Z,27.75
2023-03-21T17:47:58.133Z,23.77
2023-03-21T17:50:31.466Z,26.10
2023-03-21T17:52:58.916Z,29.00
2023-03-21T17:55:26.725Z,29.30
2023-03-21T17:57:54.100Z,27.48
2023-03-21T18:00:26.739Z,24.98
2023-03-21T18:02:54.851Z,27.95
2023-03-21T18:05:24.981Z,26.45
2023-03-21T18:08:11.321Z,26.88
2023-03-21T18:10:42.146Z,23.45
2023-03-21T18:13:10.123Z,21.10
2023-03-21T18:15:38.535Z,26.25
2023-03-21T18:18:06.029Z,24.30
2023-03-21T18:21:03.984Z,29.25
2023-03-21T18:23:21.609Z,30.58
2023-03-21T18:25:50.026Z,32.90
2023-03-21T18:28:20.488Z,33.83
2023-03-21T18:31:09.442Z,32.13
2023-03-21T18:33:41.769Z,31.65
2023-03-21T18:36:14.106Z,37.65
2023-03-21T18:38:42.996Z,36.40
2023-03-21T18:41:12.151Z,34.25
2023-03-21T18:46:27.462Z,33.40
2023-03-21T18:48:55.259Z,30.45
2023-03-21T18:51:23.197Z,28.45
2023-03-21T18:53:50.752Z,29.40
2023-03-21T18:57:05.698Z,25.92
2023-03-21T18:59:07.565Z,22.92
2023-03-21T19:01:35.997Z,21.13
2023-03-21T19:04:20.704Z,22.55
2023-03-21T19:06:50.360Z,22.80
2023-03-21T19:09:19.234Z,31.67
2023-03-21T19:11:47.966Z,29.77
2023-03-21T19:14:18.731Z,31.65
2023-03-21T19:17:34.302Z,32.03
2023-03-21T19:19:35.055Z,32.75
2023-03-21T19:22:04.364Z,39.35
2023-03-21T19:24:32.738Z,36.17
2023-03-21T19:27:00.506Z,38.17
2023-03-21T19:29:28.856Z,42.33
2023-03-21T19:31:56.880Z,38.97
2023-03-21T19:34:24.224Z,37.00
2023-03-21T19:36:52.638Z,49.72
2023-03-21T19:39:22.798Z,51.80
2023-03-21T19:41:55.226Z,49.70
2023-03-21T19:44:29.485Z,49.88
2023-03-21T19:46:57.037Z,44.05
2023-03-21T19:49:34.698Z,45.33
2023-03-21T19:52:13.451Z,48.10
2023-03-21T19:54:40.802Z,50.25
2023-03-21T19:57:09.877Z,52.17
2023-03-21T19:59:37.831Z,48.97
2023-03-21T20:02:31.196Z,53.47
2023-03-21T20:04:53.481Z,45.40
2023-03-21T20:07:21.072Z,59.10
2023-03-21T20:09:52.541Z,54.42
2023-03-21T20:12:23.105Z,51.70
2023-03-21T20:14:58.060Z,55.83
2023-03-21T20:17:33.025Z,56.65
2023-03-21T20:20:00.340Z,59.30
2023-03-21T20:22:53.594Z,48.83
2023-03-21T20:25:16.142Z,45.55
2023-03-21T20:27:44.966Z,47.28
2023-03-21T20:30:17.119Z,40.47
2023-03-21T20:32:47.137Z,41.22
2023-03-21T20:35:29.623Z,40.75
2023-03-21T20:38:04.253Z,48.65
2023-03-21T20:40:31.601Z,43.50
2023-03-21T20:43:03.062Z,48.75
2023-03-21T20:45:43.730Z,43.22
2023-03-21T20:48:11.378Z,44.88
2023-03-21T20:50:39.580Z,54.42
2023-03-21T20:53:08.856Z,50.97
2023-03-21T20:55:37.409Z,44.83
2023-03-21T20:58:26.710Z,39.47
2023-03-21T21:00:52.454Z,40.20
2023-03-21T21:03:21.054Z,34.40
2023-03-21T21:05:48.457Z,37.42
2023-03-21T21:08:19.257Z,39.92
2023-03-21T21:11:27.075Z,37.40
2023-03-21T21:13:37.610Z,39.13
2023-03-21T21:16:07.505Z,42.30
2023-03-21T21:18:36.692Z,44.38
2023-03-21T21:21:06.610Z,41.40
2023-03-21T21:23:37.395Z,40.05
2023-03-21T21:26:07.806Z,38.40
2023-03-21T21:28:38.560Z,35.28
2023-03-21T21:31:14.710Z,39.72
2023-03-21T21:33:43.029Z,38.63
2023-03-21T21:36:13.048Z,39.13
2023-03-21T21:38:41.348Z,37.83
2023-03-21T21:41:17.272Z,40.25
2023-03-21T21:43:45.552Z,37.65
2023-03-21T21:46:13.694Z,40.17
2023-03-21T21:48:42.550Z,35.15
2023-03-21T21:51:10.636Z,40.55
2023-03-21T21:53:38.997Z,36.90
2023-03-21T21:56:06.984Z,38.80
2023-03-21T21:58:38.703Z,43.70
2023-03-21T22:01:07.265Z,44.83
2023-03-21T22:03:41.193Z,47.47
2023-03-21T22:06:10.243Z,46.97
2023-03-21T22:08:38.496Z,43.50
2023-03-21T22:11:06.803Z,46.55
2023-03-21T22:13:34.498Z,49.38
2023-03-21T22:16:01.968Z,51.40
2023-03-21T22:18:29.750Z,48.10
2023-03-21T22:20:57.132Z,41.42
2023-03-21T22:23:26.169Z,40.00
2023-03-21T22:25:54.568Z,32.58
2023-03-21T22:28:25.651Z,42.05
2023-03-21T22:30:56.221Z,39.67
2023-03-21T22:33:24.280Z,37.60
2023-03-21T22:35:53.000Z,41.65
2023-03-21T22:38:24.342Z,39.67
2023-03-21T22:41:00.300Z,40.40
2023-03-21T22:43:29.350Z,38.05
2023-03-21T22:45:56.730Z,40.85
2023-03-21T22:48:24.369Z,45.00
2023-03-21T22:50:51.676Z,45.45
2023-03-21T22:53:19.379Z,45.97
2023-03-21T22:55:46.820Z,43.05
2023-03-21T22:58:14.462Z,47.13
2023-03-21T23:00:41.835Z,47.65
2023-03-21T23:03:09.499Z,49.17
2023-03-21T23:05:42.173Z,47.40
2023-03-21T23:08:10.989Z,51.83
2023-03-21T23:10:41.126Z,52.55
2023-03-21T23:13:09.179Z,51.83
2023-03-21T23:15:38.763Z,51.40
2023-03-21T23:18:07.082Z,51.05
2023-03-21T23:20:34.318Z,53.42
2023-03-21T23:23:02.402Z,50.70
2023-03-21T23:25:30.549Z,46.15
2023-03-21T23:27:58.224Z,47.65
2023-03-21T23:30:26.486Z,45.88
2023-03-21T23:32:54.026Z,45.65
2023-03-21T23:35:21.454Z,45.78
2023-03-21T23:37:52.786Z,47.03
2023-03-21T23:40:21.318Z,45.65
2023-03-21T23:42:48.993Z,47.47
2023-03-21T23:45:16.388Z,46.30
2023-03-21T23:47:44.091Z,45.45
2023-03-21T23:50:11.628Z,45.95
2023-03-21T23:52:41.682Z,44.25
2023-03-21T23:55:09.709Z,44.42
2023-03-21T23:57:41.783Z,44.28
